»·PEaware :: SWA1545 KLAX-KPHX

SWA1545 :: KLAX-KPHX

FLIGHT INFORMATION

Flight Status: Arrived
Operator:
Southwest Airlines
More flights by this operator :: More flights under this callsign
Pilot: Ben L. (6391)
Aircraft: BOEING 737-800
(B738)
More flights by this aircraft type
Origin: KLAX Los Angeles Intl
United States
Destination: KPHX Phoenix Sky Harbor Intl
United States
More flights between these airports :: More routes between these airports
Route: +LAXX1 TRM BLH HYDRR1
File this flight plan on PilotEdge
Remarks:
Altitude:
(Current/Filed)
33,000ft
Speed:
(Current/Filed)
470kts
Departed: 06-Dec-18 01:12 PM
Arrived: 06-Dec-18 02:20 PM
Distance/Time
Traveled:
321nm/1:07
Distance/Time
To Go:
Arrived

Flight Plot

Page will automatically refresh every two minutes.

Flight plan parsing failed; only flown route is shown


Map Options




Map Legend


Flown Route
Filed Route
Departure Airport
Arrival Airport
Navaid (VOR, NDB)
Fix

Horizontal Profiles

Position Reports

Time Latitude Longitude Heading Altitude Ground
Speed
06-Dec-18 12:48 33.946007 -118.406497 307 135ft 0kts
06-Dec-18 12:49 33.946007 -118.406497 307 135ft 0kts
06-Dec-18 12:50 33.946007 -118.406497 307 135ft 0kts
06-Dec-18 12:51 33.946007 -118.406497 307 135ft 0kts
06-Dec-18 12:52 33.946007 -118.406497 307 135ft 0kts
06-Dec-18 12:53 33.946007 -118.406497 307 135ft 0kts
06-Dec-18 12:54 33.946007 -118.406497 307 135ft 0kts
06-Dec-18 12:55 33.946007 -118.406497 307 135ft 0kts
06-Dec-18 12:56 33.946007 -118.406497 307 135ft 0kts
06-Dec-18 12:57 33.945885 -118.406250 301 135ft 2kts
06-Dec-18 12:58 33.945602 -118.405725 349 135ft 0kts
06-Dec-18 12:59 33.945530 -118.405721 353 135ft 0kts
06-Dec-18 13:00 33.945530 -118.405721 353 135ft 0kts
06-Dec-18 13:01 33.945530 -118.405721 353 135ft 0kts
06-Dec-18 13:02 33.945530 -118.405721 353 135ft 0kts
06-Dec-18 13:03 33.945531 -118.405721 353 135ft 0kts
06-Dec-18 13:04 33.946357 -118.405694 359 135ft 13kts
06-Dec-18 13:05 33.947205 -118.405795 350 135ft 0kts
06-Dec-18 13:06 33.948386 -118.406066 322 135ft 2kts
06-Dec-18 13:07 33.947947 -118.412805 262 135ft 30kts
06-Dec-18 13:08 33.946724 -118.423389 262 135ft 29kts
06-Dec-18 13:09 33.945842 -118.432640 263 135ft 27kts
06-Dec-18 13:10 33.946491 -118.434511 5 135ft 7kts
06-Dec-18 13:11 33.949044 -118.411612 82 306ft 160kts
06-Dec-18 13:12 33.949055 -118.354017 102 2189ft 208kts
06-Dec-18 13:13 33.953004 -118.286543 83 2971ft 251kts
06-Dec-18 13:14 33.958924 -118.204168 107 3624ft 254kts
06-Dec-18 13:15 33.913247 -118.139479 133 5713ft 264kts
06-Dec-18 13:16 33.875246 -118.077987 103 8401ft 268kts
06-Dec-18 13:17 33.868760 -117.992045 97 10301ft 291kts
06-Dec-18 13:18 33.866481 -117.889561 92 11542ft 323kts
06-Dec-18 13:19 33.870160 -117.780554 91 13258ft 336kts
06-Dec-18 13:20 33.870451 -117.669709 104 15054ft 341kts
06-Dec-18 13:21 33.853285 -117.557377 105 16837ft 351kts
06-Dec-18 13:22 33.835597 -117.444207 105 18417ft 362kts
06-Dec-18 13:23 33.819753 -117.328089 101 19863ft 375kts
06-Dec-18 13:24 33.810343 -117.208130 100 21138ft 385kts
06-Dec-18 13:25 33.800323 -117.080562 101 22329ft 394kts
06-Dec-18 13:26 33.789946 -116.950358 101 23343ft 405kts
06-Dec-18 13:27 33.779416 -116.819860 101 24298ft 414kts
06-Dec-18 13:28 33.768236 -116.683097 101 25264ft 421kts
06-Dec-18 13:29 33.756912 -116.546443 101 26117ft 428kts
06-Dec-18 13:30 33.745024 -116.405126 101 26906ft 435kts
06-Dec-18 13:31 33.733614 -116.270841 102 27592ft 441kts
06-Dec-18 13:32 33.721340 -116.127751 102 28268ft 445kts
06-Dec-18 13:33 33.708706 -115.982525 102 28851ft 451kts
06-Dec-18 13:34 33.695731 -115.835368 102 29058ft 454kts
06-Dec-18 13:35 33.682457 -115.687050 102 29077ft 458kts
06-Dec-18 13:36 33.669064 -115.539397 102 29072ft 462kts
06-Dec-18 13:37 33.655207 -115.388619 102 29064ft 464kts
06-Dec-18 13:38 33.642945 -115.256123 102 29076ft 464kts
06-Dec-18 13:39 33.628981 -115.106587 103 29091ft 463kts
06-Dec-18 13:40 33.615192 -114.959317 103 26601ft 437kts
06-Dec-18 13:41 33.601939 -114.821528 102 24181ft 413kts
06-Dec-18 13:42 33.583833 -114.694842 109 23105ft 401kts
06-Dec-18 13:44 33.558436 -114.566918 109 23104ft 402kts
06-Dec-18 13:45 33.533039 -114.437432 109 23104ft 401kts
06-Dec-18 13:46 33.509315 -114.317043 109 23098ft 401kts
06-Dec-18 13:47 33.485973 -114.199085 109 23094ft 401kts
06-Dec-18 13:48 33.461163 -114.074371 109 23058ft 402kts
06-Dec-18 13:49 33.435590 -113.946999 109 23020ft 402kts
06-Dec-18 13:50 33.410468 -113.822049 109 23022ft 401kts
06-Dec-18 13:51 33.384883 -113.695359 109 23028ft 402kts
06-Dec-18 13:52 33.359178 -113.568770 109 23041ft 401kts
06-Dec-18 13:53 33.333405 -113.441717 107 21369ft 397kts
06-Dec-18 13:54 33.315323 -113.328155 96 19390ft 376kts
06-Dec-18 13:55 33.321783 -113.216242 106 19446ft 377kts
06-Dec-18 13:56 33.277723 -113.121768 106 19160ft 373kts
06-Dec-18 13:57 33.274520 -113.003437 86 17183ft 359kts
06-Dec-18 13:58 33.278982 -112.890720 92 15215ft 338kts
06-Dec-18 13:59 33.283714 -112.782536 86 13533ft 318kts
06-Dec-18 14:00 33.293317 -112.682232 85 12037ft 301kts
06-Dec-18 14:00 33.300902 -112.601460 85 10976ft 294kts
06-Dec-18 14:02 33.311524 -112.487494 85 10980ft 298kts
06-Dec-18 14:03 33.320468 -112.392060 85 10990ft 291kts
06-Dec-18 14:03 33.327123 -112.320350 86 10471ft 284kts
06-Dec-18 14:04 33.335077 -112.232133 85 9491ft 270kts
06-Dec-18 14:06 33.343566 -112.138382 84 8981ft 245kts
06-Dec-18 14:07 33.347725 -112.058669 93 8703ft 244kts
06-Dec-18 14:07 33.346492 -111.993541 90 7890ft 242kts
06-Dec-18 14:09 33.353776 -111.902547 88 6947ft 240kts
06-Dec-18 14:09 33.354328 -111.837485 88 6124ft 238kts
06-Dec-18 14:11 33.354786 -111.751475 88 4968ft 218kts
06-Dec-18 14:11 33.355071 -111.691823 87 4486ft 216kts
06-Dec-18 14:12 33.397880 -111.671581 333 4459ft 194kts
06-Dec-18 14:13 33.413704 -111.731581 279 4476ft 200kts
06-Dec-18 14:14 33.421550 -111.796724 278 4323ft 207kts
06-Dec-18 14:15 33.426248 -111.865195 275 3487ft 187kts
06-Dec-18 14:16 33.428685 -111.918032 274 2534ft 147kts
06-Dec-18 14:17 33.428403 -111.963695 272 1811ft 140kts
06-Dec-18 14:18 33.428850 -112.009197 269 1142ft 120kts
06-Dec-18 14:19 33.429039 -112.020769 286 1142ft 1kts
06-Dec-18 14:20 33.430006 -112.017088 88 1142ft 19kts
06-Dec-18 14:21 33.432166 -112.012268 89 1142ft 29kts
06-Dec-18 14:22 33.432138 -112.002848 91 1142ft 28kts
06-Dec-18 14:23 33.433742 -111.998302 344 1142ft 6kts

Navigation Log

Ident Type
Flight plan parsing failed, navigation log unavailable